METAR Data
IDs: Format: Raw Decoded Include TAF

Data at: 0104 UTC 06 Dec 2019

KAQW 060052Z AUTO 30009G17KT 270V330 10SM OVC045 M02/M10 A2990 RMK AO2 SLP134 T10221100 TSNO
KAQW 052352Z AUTO 26013G21KT 10SM BKN048 M02/M09 A2987 RMK AO2 PK WND 28026/2327 SLP123 60000 T10171089 10017 21017 53031 TSNO
KAQW 052252Z AUTO 26017G24KT 10SM SCT038 OVC075 M01/M09 A2983 RMK AO2 PK WND 24029/2202 SLP107 T10111089 TSNO
KAQW 052152Z AUTO 27017G30KT 10SM SCT038 OVC070 M01/M08 A2979 RMK AO2 PK WND 27030/2150 SNE04 SLP094 P0000 T10111083 TSNO
KAQW 052105Z AUTO 27021G29KT 9SM SCT036 BKN049 OVC070 M01/M08 A2978 RMK AO2 PK WND 27029/2105 SNE04 P0000 T10111078 TSNO
KAQW 052052Z AUTO 27022G31KT 2 1/2SM -SN SCT033 BKN040 OVC070 M01/M07 A2978 RMK AO2 PK WND 27031/2043 VIS 1V5 SNB45 SLP091 P0000 60000 T10111072 53035 TSNO
KAQW 051952Z AUTO 26014KT 10SM BKN040 OVC050 01/M07 A2973 RMK AO2 PK WND 28027/1855 SLP076 T00111067 TSNO
KAQW 051852Z AUTO 27016G22KT 10SM BKN047 OVC070 02/M08 A2969 RMK AO2 PK WND 26027/1810 SLP062 T00171078 TSNO
KAQW 051752Z AUTO 29016G25KT 10SM BKN043 BKN065 02/M07 A2967 RMK AO2 PK WND 27034/1718 SLP055 60000 T00171072 10022 20011 51011 TSNO
KAQW 051652Z AUTO 28014G21KT 10SM FEW039 OVC060 02/M07 A2966 RMK AO2 PK WND 26027/1633 SNE07 SLP052 P0000 T00171067 TSNO
KAQW 051552Z AUTO 27016G22KT 8SM -SN SCT028 BKN036 OVC045 01/M05 A2965 RMK AO2 PK WND 27029/1455 SNB16 SLP049 P0000 T00111050 TSNO
KAQW 051535Z AUTO 27014G20KT 9SM -SN BKN028 BKN034 OVC047 01/M05 A2965 RMK AO2 PK WND 27029/1455 SNB16 P0000 T00111050 TSNO
KAQW 051452Z AUTO 27013G22KT 10SM SCT035 BKN050 OVC065 02/M06 A2964 RMK AO2 SNE1357 SLP043 P0000 60000 T00171056 53017 TSNO
KAQW 051352Z AUTO 27013G23KT 9SM -SN FEW029 BKN049 OVC065 01/M04 A2962 RMK AO2 PK WND 27028/1331 SLP037 P0000 T00111044 TSNO
KAQW 051334Z AUTO 27013G28KT 9SM -SN SCT026 BKN031 OVC047 01/M04 A2960 RMK AO2 PK WND 27028/1331 P0000 T00111039 TSNO
KAQW 051306Z AUTO 26011KT 3SM -SN BKN021 BKN030 OVC035 01/M02 A2960 RMK AO2 P0000 T00111022 TSNO
KAQW 051257Z AUTO 26011G20KT 1 3/4SM -SN SCT021 BKN025 OVC030 01/M02 A2959 RMK AO2 P0000 T00111022 TSNO
KAQW 051252Z AUTO 27013G20KT 3SM -SN BKN021 BKN026 OVC030 01/M03 A2959 RMK AO2 SLP026 P0000 T00111028 TSNO
KAQW 051248Z AUTO 27013KT 2SM -SN BKN023 OVC030 01/M03 A2959 RMK AO2 P0000 TSNO
KAQW 051152Z AUTO 27007KT 9SM -SN BKN021 BKN034 OVC047 01/M03 A2957 RMK AO2 SNE05B47 SLP019 P0000 60000 T00111028 10017 21006 53026 TSNO
KAQW 051144Z AUTO 27008KT 9SM BKN021 BKN034 OVC043 01/M03 A2956 RMK AO2 SNE05 P0000 T00111028 TSNO
KAQW 051116Z AUTO 28009KT 10SM SCT020 OVC060 01/M03 A2955 RMK AO2 SNE05 P0000 T00111033 TSNO
KAQW 051052Z AUTO 27008KT 5SM -SN OVC020 01/M03 A2953 RMK AO2 SNB32 SLP008 P0000 T00111028 TSNO
KAQW 050952Z AUTO 29007KT 10SM OVC024 02/M03 A2951 RMK AO2 SLP997 T00171033 TSNO
KAQW 050852Z AUTO 27008KT 10SM OVC021 02/M03 A2949 RMK AO2 SLP991 60000 T00171028 53010 TSNO
KAQW 050752Z AUTO 28007KT 10SM BKN025 OVC030 01/M02 A2948 RMK AO2 SNB0656E18 SLP987 P0000 T00111022 TSNO
KAQW 050652Z AUTO 29006KT 10SM OVC022 01/M02 A2947 RMK AO2 SNB06E15 SLP985 P0000 T00061022 TSNO
KAQW 050605Z AUTO 31004KT 9SM BKN025 OVC030 00/M02 A2946 RMK AO2 T00001022 TSNO
KAQW 050552Z AUTO 29003KT 10SM FEW025 OVC032 M01/M02 A2946 RMK AO2 SLP982 60000 T10061022 10000 21022 50000 TSNO
KAQW 050533Z AUTO 00000KT 5SM BR SCT024 BKN032 OVC055 M01/M03 A2946 RMK AO2 T10111028 TSNO
KAQW 050452Z AUTO 00000KT 6SM BR BKN025 OVC039 M02/M03 A2946 RMK AO2 SLP982 T10171033 400221078 TSNO
KAQW 050352Z AUTO 00000KT 6SM BR BKN023 OVC028 M02/M03 A2946 RMK AO2 SLP983 T10171033 TSNO
KAQW 050252Z AUTO 00000KT 6SM BR OVC027 M01/M03 A2946 RMK AO2 SNE29 SLP983 P0000 60000 T10111028 58002 TSNO
KAQW 050152Z AUTO 00000KT 5SM -SN BR BKN021 OVC028 M01/M03 A2946 RMK AO2 SLP985 P0000 T10061028 TSNO
KAQW 050052Z AUTO 00000KT 6SM -SN BR OVC022 M01/M03 A2947 RMK AO2 SNB38 SLP986 P0000 T10061028 TSNO
KAQW 042352Z AUTO 00000KT 10SM OVC029 M01/M03 A2946 RMK AO2 SLP985 T10061033 10022 21006 53010 TSNO
KAQW 042252Z AUTO 32003KT 10SM OVC029 01/M04 A2946 RMK AO2 SLP983 T00061039 TSNO
KAQW 042212Z AUTO 00000KT 10SM BKN031 OVC055 00/M04 A2945 RMK AO2 T00001039 TSNO
KAQW 042152Z AUTO 00000KT 10SM BKN029 OVC055 02/M04 A2943 RMK AO2 SLP974 T00171044 TSNO
KAQW 042138Z AUTO 33003KT 10SM BKN029 OVC042 02/M04 A2944 RMK AO2 T00171039 TSNO
KAQW 042100Z AUTO 29004KT 10SM BKN030 OVC035 02/M04 A2943 RMK AO2 T00171039 TSNO
KAQW 042052Z AUTO 29003KT 10SM BKN028 OVC035 02/M04 A2943 RMK AO2 SLP974 T00171039 53001 TSNO
KAQW 041952Z AUTO 29003KT 10SM OVC027 02/M04 A2943 RMK AO2 SLP973 T00171039 TSNO
KAQW 041941Z AUTO 00000KT 10SM BKN028 OVC046 02/M04 A2943 RMK AO2 T00221039 TSNO
KAQW 041852Z AUTO 25006KT 10SM FEW027 OVC045 02/M04 A2943 RMK AO2 SLP973 T00171039 TSNO
KAQW 041850Z AUTO 26006KT 10SM SCT027 OVC045 02/M04 A2943 RMK AO2 TSNO
KAQW 041752Z AUTO 28005KT 10SM OVC027 02/M04 A2944 RMK AO2 SLP977 T00171039 10022 21033 58023 TSNO
KAQW 041652Z AUTO 00000KT 10SM OVC029 02/M03 A2946 RMK AO2 SLP984 T00171033 TSNO
KAQW 041552Z AUTO 00000KT 10SM FEW023 OVC039 M01/M04 A2949 RMK AO2 SLP996 T10111039 TSNO
KAQW 041452Z AUTO 00000KT 10SM OVC019 M03/M05 A2951 RMK AO2 SLP002 T10281050 53003 TSNO
KAQW 041352Z AUTO 03003KT 10SM OVC021 M03/M06 A2950 RMK AO2 SLP000 T10331056 TSNO